Time;durP1;ratioP1;P1;durP2;ratioP2;P2;SDS_P1;SDS_P2;PMS_P1;PMS_P2;Temp;Humidity;BMP_temperature;BMP_pressure;BME280_temperature;BME280_humidity;BME280_pressure;Samples;Min_cycle;Max_cycle;Signal;HPM_P1;HPM_P2
2022/03/06 00:01:25;;;;;;;75.05;47.42;;;3.40;99.90;;;;;;5060834;28;20504;-72
2022/03/06 00:03:53;;;;;;;76.40;47.13;;;3.30;99.90;;;;;;5064540;28;20109;-73
2022/03/06 00:06:20;;;;;;;80.38;50.53;;;3.30;99.90;;;;;;5061042;28;20598;-74
2022/03/06 00:08:48;;;;;;;87.22;51.72;;;3.20;99.90;;;;;;5066885;28;20119;-89
2022/03/06 00:11:15;;;;;;;94.30;55.42;;;3.40;99.90;;;;;;5056817;28;20048;-71
2022/03/06 00:13:42;;;;;;;86.03;54.35;;;3.50;99.90;;;;;;5062834;28;20028;-75
2022/03/06 00:16:09;;;;;;;84.38;53.40;;;3.60;99.90;;;;;;5061907;28;20087;-77
2022/03/06 00:18:37;;;;;;;86.95;51.05;;;3.60;99.90;;;;;;5071876;28;20046;-76
2022/03/06 00:21:05;;;;;;;78.28;48.65;;;3.70;99.90;;;;;;5071518;28;20696;-79
2022/03/06 00:23:34;;;;;;;81.40;49.72;;;3.60;99.90;;;;;;5073026;28;20047;-80
2022/03/06 00:26:01;;;;;;;80.57;49.58;;;3.40;99.90;;;;;;5071942;28;20131;-67
2022/03/06 00:28:29;;;;;;;81.18;48.63;;;3.30;99.90;;;;;;5090986;28;20042;-74
2022/03/06 00:30:56;;;;;;;77.85;49.45;;;3.40;99.90;;;;;;5091344;28;20123;-72
2022/03/06 00:33:23;;;;;;;79.85;49.55;;;3.30;99.90;;;;;;5087945;28;20495;-69
2022/03/06 00:35:50;;;;;;;76.65;47.08;;;3.20;99.90;;;;;;5051068;28;20455;-72
2022/03/06 00:38:18;;;;;;;80.10;49.03;;;3.30;99.90;;;;;;5050739;28;20140;-73
2022/03/06 00:40:45;;;;;;;78.07;47.65;;;3.30;99.90;;;;;;5051788;28;20041;-76
2022/03/06 00:43:13;;;;;;;80.53;46.65;;;3.40;99.90;;;;;;5052128;28;20128;-70
2022/03/06 00:45:40;;;;;;;72.20;46.03;;;3.50;99.90;;;;;;5052025;28;20065;-69
2022/03/06 00:48:07;;;;;;;72.05;47.65;;;3.40;99.90;;;;;;5051359;28;20044;-70
2022/03/06 00:50:36;;;;;;;79.43;47.55;;;3.40;99.90;;;;;;5050661;28;20092;-71
2022/03/06 00:53:05;;;;;;;74.75;44.83;;;3.40;99.90;;;;;;5051565;28;20074;-73
2022/03/06 00:55:35;;;;;;;73.10;42.70;;;3.40;99.90;;;;;;5051684;28;20388;-82
2022/03/06 00:58:05;;;;;;;64.53;42.93;;;3.40;99.90;;;;;;5050411;28;20404;-71
2022/03/06 01:00:35;;;;;;;67.75;42.65;;;3.40;99.90;;;;;;5051522;28;20440;-71
2022/03/06 01:03:05;;;;;;;71.57;44.05;;;3.40;99.90;;;;;;5051470;28;20045;-68
2022/03/06 01:05:33;;;;;;;66.20;40.87;;;3.40;99.90;;;;;;5050583;28;20045;-70
2022/03/06 01:08:00;;;;;;;64.22;41.22;;;3.30;99.90;;;;;;5051252;28;20064;-70
2022/03/06 01:10:28;;;;;;;134.27;75.32;;;3.20;99.90;;;;;;5051441;28;20082;-70
2022/03/06 01:12:55;;;;;;;237.05;120.63;;;3.50;99.90;;;;;;5051733;28;20037;-70
2022/03/06 01:15:22;;;;;;;103.68;62.20;;;3.60;99.90;;;;;;5050027;28;20057;-75
2022/03/06 01:17:50;;;;;;;77.22;49.53;;;3.50;99.90;;;;;;5063446;28;20051;-74
2022/03/06 01:20:19;;;;;;;64.50;41.95;;;3.50;99.90;;;;;;5056314;28;20123;-74
2022/03/06 01:22:47;;;;;;;68.50;41.63;;;3.40;99.90;;;;;;5054010;28;20119;-75
2022/03/06 01:25:14;;;;;;;57.95;38.53;;;3.30;99.90;;;;;;5058702;28;20091;-73
2022/03/06 01:27:42;;;;;;;58.60;38.38;;;3.20;99.90;;;;;;5044620;28;20040;-73
2022/03/06 01:30:11;;;;;;;60.15;38.55;;;3.20;99.90;;;;;;5070205;28;20075;-73
2022/03/06 01:32:39;;;;;;;57.00;36.35;;;3.20;99.90;;;;;;5069799;28;20048;-73
2022/03/06 01:35:07;;;;;;;53.08;34.92;;;3.20;99.90;;;;;;5071176;28;20045;-74
2022/03/06 01:37:34;;;;;;;55.92;35.85;;;3.30;99.90;;;;;;5071129;28;20119;-71
2022/03/06 01:40:02;;;;;;;53.92;35.15;;;3.30;99.90;;;;;;5071042;28;20385;-72
2022/03/06 01:42:30;;;;;;;51.60;35.00;;;3.10;99.90;;;;;;5071071;28;20051;-73
2022/03/06 01:44:57;;;;;;;52.53;34.88;;;3.00;99.90;;;;;;5070935;28;20207;-73
2022/03/06 01:47:35;;;;;;;49.92;32.70;;;3.10;99.90;;;;;;5070074;28;20482;-72
2022/03/06 01:50:04;;;;;;;50.58;32.35;;;3.30;99.90;;;;;;5070691;28;20123;-72
2022/03/06 01:52:31;;;;;;;53.03;33.22;;;3.00;99.90;;;;;;5070025;28;20028;-72
2022/03/06 01:54:59;;;;;;;38.58;29.48;;;3.00;99.90;;;;;;5071063;28;20404;-76
2022/03/06 01:57:28;;;;;;;39.75;27.23;;;3.00;99.90;;;;;;5071361;28;20040;-72
2022/03/06 01:59:55;;;;;;;38.05;27.58;;;3.00;99.90;;;;;;5072223;28;20143;-72
2022/03/06 02:02:23;;;;;;;41.67;27.75;;;3.10;99.90;;;;;;5073681;28;20048;-74
2022/03/06 02:04:50;;;;;;;40.50;27.02;;;3.10;99.90;;;;;;5073552;28;20044;-74
2022/03/06 02:07:18;;;;;;;48.20;30.13;;;3.10;99.90;;;;;;5073853;28;20048;-71
2022/03/06 02:09:45;;;;;;;44.40;30.13;;;3.10;99.90;;;;;;5073488;28;20040;-73
2022/03/06 02:12:21;;;;;;;47.05;31.67;;;2.80;99.90;;;;;;5056867;28;20055;-72
2022/03/06 02:14:51;;;;;;;49.45;31.55;;;3.00;99.90;;;;;;5074462;28;20071;-73
2022/03/06 02:17:19;;;;;;;53.63;33.40;;;3.20;99.90;;;;;;5074467;28;20423;-73
2022/03/06 02:19:57;;;;;;;51.45;32.25;;;3.20;99.90;;;;;;5074015;28;20072;-72
2022/03/06 02:22:29;;;;;;;46.75;31.50;;;3.20;99.90;;;;;;5074248;28;20539;-73
2022/03/06 02:24:58;;;;;;;49.35;32.45;;;3.30;99.90;;;;;;5072543;28;20067;-74
2022/03/06 02:27:26;;;;;;;48.83;30.98;;;3.40;99.90;;;;;;5090564;28;20051;-75
2022/03/06 02:29:54;;;;;;;45.40;29.42;;;3.30;99.90;;;;;;5092979;28;20124;-72
2022/03/06 02:32:23;;;;;;;43.75;30.02;;;3.30;99.90;;;;;;5094181;28;20036;-73
2022/03/06 02:34:52;;;;;;;47.97;32.75;;;3.30;99.90;;;;;;5092949;28;20048;-75
2022/03/06 02:37:21;;;;;;;47.15;32.10;;;3.20;99.90;;;;;;5094553;28;20048;-73
2022/03/06 02:39:48;;;;;;;47.03;31.83;;;3.20;99.90;;;;;;5094005;28;20426;-72
2022/03/06 02:42:30;;;;;;;49.80;32.10;;;3.00;99.90;;;;;;5094545;28;20044;-73
2022/03/06 02:44:59;;;;;;;49.03;32.10;;;2.90;99.90;;;;;;5092999;28;20048;-74
2022/03/06 02:47:27;;;;;;;53.78;32.80;;;2.90;99.90;;;;;;5092883;28;20028;-73
2022/03/06 02:49:54;;;;;;;48.60;32.08;;;2.90;99.90;;;;;;5092795;28;20139;-71
2022/03/06 02:52:21;;;;;;;49.50;32.10;;;2.80;99.90;;;;;;5094214;28;20044;-71
2022/03/06 02:54:49;;;;;;;51.47;32.08;;;2.90;99.90;;;;;;5093663;28;20043;-73
2022/03/06 02:57:16;;;;;;;52.55;31.63;;;2.90;99.90;;;;;;5094479;28;20042;-70
2022/03/06 02:59:43;;;;;;;48.85;31.50;;;3.10;99.90;;;;;;5093677;28;20120;-72
2022/03/06 03:02:10;;;;;;;51.40;31.92;;;3.30;99.90;;;;;;5092862;28;20044;-73
2022/03/06 03:04:38;;;;;;;49.65;31.45;;;3.20;99.90;;;;;;5092328;28;20048;-75
2022/03/06 03:07:09;;;;;;;46.28;31.98;;;3.20;99.90;;;;;;5092307;28;20499;-75
2022/03/06 03:09:37;;;;;;;48.35;31.88;;;3.10;99.90;;;;;;5092479;28;20051;-76
2022/03/06 03:12:05;;;;;;;36.40;26.52;;;3.20;99.90;;;;;;5075907;28;20040;-73
2022/03/06 03:14:33;;;;;;;35.28;24.33;;;3.20;99.90;;;;;;5091936;28;20044;-75
2022/03/06 03:17:01;;;;;;;43.78;26.88;;;3.30;99.90;;;;;;5093582;28;20410;-70
2022/03/06 03:19:28;;;;;;;42.90;28.13;;;3.30;99.90;;;;;;5093366;28;20109;-71
2022/03/06 03:21:56;;;;;;;42.97;27.42;;;3.40;99.90;;;;;;5092356;28;20055;-72
2022/03/06 03:24:24;;;;;;;42.78;27.90;;;3.40;99.90;;;;;;5093328;28;20115;-74
2022/03/06 03:26:52;;;;;;;43.50;29.55;;;3.40;99.90;;;;;;5081576;28;20365;-72
2022/03/06 03:29:19;;;;;;;40.55;27.75;;;3.40;99.90;;;;;;5071878;28;20620;-73
2022/03/06 03:31:46;;;;;;;42.10;28.88;;;3.50;99.90;;;;;;5072229;28;20044;-71
2022/03/06 03:34:14;;;;;;;39.45;27.52;;;3.30;99.90;;;;;;5071736;28;20126;-71
2022/03/06 03:36:43;;;;;;;39.75;26.88;;;3.10;99.90;;;;;;5071992;28;20480;-71
2022/03/06 03:39:10;;;;;;;42.08;28.40;;;3.30;99.90;;;;;;5073059;28;20097;-72
2022/03/06 03:41:37;;;;;;;40.45;27.55;;;3.30;99.90;;;;;;5072000;28;20109;-71
2022/03/06 03:44:05;;;;;;;40.35;27.60;;;3.20;99.90;;;;;;5071698;28;20048;-71
2022/03/06 03:46:32;;;;;;;40.25;26.50;;;3.10;99.90;;;;;;5054949;28;20377;-72
2022/03/06 03:49:00;;;;;;;37.65;25.45;;;3.20;99.90;;;;;;5055086;28;20495;-72
2022/03/06 03:51:28;;;;;;;38.70;25.23;;;3.10;99.90;;;;;;5071840;28;20103;-73
2022/03/06 03:53:55;;;;;;;37.35;26.17;;;3.20;99.90;;;;;;5071584;28;20446;-73
2022/03/06 03:56:23;;;;;;;39.08;25.70;;;3.20;99.90;;;;;;5071585;28;20048;-71
2022/03/06 03:58:50;;;;;;;38.78;26.83;;;3.30;99.90;;;;;;5071251;28;20076;-73
2022/03/06 04:01:18;;;;;;;38.65;26.83;;;3.30;99.90;;;;;;5071235;28;20040;-71
2022/03/06 04:03:46;;;;;;;39.83;26.33;;;3.20;99.90;;;;;;5054662;28;20044;-73
2022/03/06 04:06:13;;;;;;;36.47;25.50;;;3.20;99.90;;;;;;5054738;28;20044;-72
2022/03/06 04:08:41;;;;;;;36.90;26.05;;;3.10;99.90;;;;;;5071193;28;20411;-73
2022/03/06 04:11:09;;;;;;;41.00;27.10;;;3.10;99.90;;;;;;5070993;28;20032;-75
2022/03/06 04:13:37;;;;;;;34.05;24.67;;;3.30;99.90;;;;;;5072254;28;20040;-72
2022/03/06 04:16:04;;;;;;;37.25;24.73;;;3.20;99.90;;;;;;5071218;28;20407;-74
2022/03/06 04:18:32;;;;;;;34.58;24.52;;;3.10;99.90;;;;;;5070770;28;20504;-75
2022/03/06 04:21:00;;;;;;;36.40;26.33;;;3.10;99.90;;;;;;5070603;28;20040;-74
2022/03/06 04:23:27;;;;;;;41.15;26.20;;;3.30;99.90;;;;;;5071589;28;20037;-72
2022/03/06 04:25:54;;;;;;;39.30;26.48;;;3.30;99.90;;;;;;5071966;28;20136;-71
2022/03/06 04:28:22;;;;;;;42.15;27.23;;;3.40;99.90;;;;;;5108067;28;20130;-74
2022/03/06 04:30:52;;;;;;;39.60;26.67;;;3.20;99.90;;;;;;5092286;28;20047;-71
2022/03/06 04:33:19;;;;;;;42.50;27.30;;;3.30;99.90;;;;;;5091973;28;20036;-72
2022/03/06 04:35:47;;;;;;;37.33;25.88;;;3.30;99.90;;;;;;5091152;28;20206;-72
2022/03/06 04:38:14;;;;;;;41.65;27.85;;;3.30;99.90;;;;;;5090835;28;20044;-71
2022/03/06 04:40:41;;;;;;;42.83;29.05;;;3.40;99.90;;;;;;5092075;28;20043;-72
2022/03/06 04:43:09;;;;;;;41.42;27.65;;;3.40;99.90;;;;;;5091057;28;20121;-73
2022/03/06 04:45:36;;;;;;;41.35;29.13;;;3.40;99.90;;;;;;5090769;28;20036;-71
2022/03/06 04:48:04;;;;;;;39.58;26.58;;;3.20;99.90;;;;;;5073470;28;20044;-71
2022/03/06 04:50:31;;;;;;;42.20;26.90;;;3.20;99.90;;;;;;5090700;28;20117;-71
2022/03/06 04:52:59;;;;;;;44.13;29.35;;;3.30;99.90;;;;;;5107861;28;20444;-71
2022/03/06 04:55:26;;;;;;;40.38;27.27;;;3.40;99.90;;;;;;5090323;28;20044;-74
2022/03/06 04:57:54;;;;;;;38.75;26.42;;;3.50;99.90;;;;;;5092319;28;20054;-71
2022/03/06 05:00:27;;;;;;;41.00;27.25;;;3.40;99.90;;;;;;5091455;28;20044;-72
2022/03/06 05:02:54;;;;;;;43.10;27.98;;;3.30;99.90;;;;;;5090494;28;20043;-72
2022/03/06 05:05:22;;;;;;;41.58;27.27;;;3.30;99.90;;;;;;5090333;28;20040;-73
2022/03/06 05:07:49;;;;;;;40.72;26.52;;;3.30;99.90;;;;;;5091678;28;20410;-72
2022/03/06 05:10:17;;;;;;;40.70;27.73;;;3.40;99.90;;;;;;5091246;28;20050;-71
2022/03/06 05:12:45;;;;;;;37.38;25.70;;;3.30;99.90;;;;;;5092282;28;20058;-70
2022/03/06 05:15:13;;;;;;;38.85;26.58;;;3.30;99.90;;;;;;5091346;28;20054;-71
2022/03/06 05:17:41;;;;;;;37.75;25.48;;;3.40;99.90;;;;;;5090048;28;20052;-70
2022/03/06 05:20:14;;;;;;;37.42;25.33;;;3.40;99.90;;;;;;5090181;28;20491;-71
2022/03/06 05:22:42;;;;;;;36.95;23.92;;;3.40;99.90;;;;;;5089995;28;20065;-71
2022/03/06 05:25:10;;;;;;;32.88;24.27;;;3.20;99.90;;;;;;5073464;28;20043;-72
2022/03/06 05:27:38;;;;;;;37.53;24.85;;;3.20;99.90;;;;;;5076754;28;20102;-71
2022/03/06 05:30:08;;;;;;;34.85;23.92;;;3.20;99.90;;;;;;5070155;28;20044;-70
2022/03/06 05:32:36;;;;;;;38.30;24.15;;;3.30;99.90;;;;;;5069735;28;20045;-74
2022/03/06 05:35:04;;;;;;;35.50;25.25;;;3.40;99.90;;;;;;5074313;28;20051;-72
2022/03/06 05:37:33;;;;;;;35.30;24.80;;;3.40;99.90;;;;;;5075315;28;20044;-72
2022/03/06 05:40:00;;;;;;;35.03;24.52;;;3.40;99.90;;;;;;5074150;28;20052;-72
2022/03/06 05:42:27;;;;;;;24.77;18.70;;;3.30;99.90;;;;;;5075214;28;20476;-72
2022/03/06 05:44:54;;;;;;;27.92;19.35;;;3.10;99.90;;;;;;5074071;28;20052;-72
2022/03/06 05:47:22;;;;;;;28.55;20.48;;;3.20;99.90;;;;;;5073704;28;20064;-72
2022/03/06 05:49:49;;;;;;;31.83;21.27;;;3.20;99.90;;;;;;5074010;28;20203;-76
2022/03/06 05:52:16;;;;;;;32.47;22.42;;;3.30;99.90;;;;;;5073625;28;20037;-71
2022/03/06 05:54:43;;;;;;;34.10;23.10;;;3.40;99.90;;;;;;5073658;28;20067;-74
2022/03/06 05:57:11;;;;;;;34.72;24.08;;;3.40;99.90;;;;;;5075233;28;20147;-75
2022/03/06 05:59:38;;;;;;;34.63;24.00;;;3.30;99.90;;;;;;5074885;28;20144;-72
2022/03/06 06:02:06;;;;;;;35.65;24.90;;;3.40;99.90;;;;;;5073164;28;20913;-74
2022/03/06 06:04:33;;;;;;;35.63;24.08;;;3.50;99.90;;;;;;5074756;28;20484;-70
2022/03/06 06:07:01;;;;;;;46.53;27.98;;;3.40;99.90;;;;;;5074675;28;20047;-70
2022/03/06 06:09:28;;;;;;;39.65;27.02;;;3.40;99.90;;;;;;5073374;28;20573;-76
2022/03/06 06:11:55;;;;;;;37.83;25.77;;;3.40;99.90;;;;;;5057194;28;20044;-73
2022/03/06 06:14:22;;;;;;;34.80;25.67;;;3.20;99.90;;;;;;5074534;28;20115;-75
2022/03/06 06:16:50;;;;;;;34.70;24.02;;;3.20;99.90;;;;;;5074310;28;20455;-75
2022/03/06 06:19:17;;;;;;;36.10;25.15;;;3.20;99.90;;;;;;5074379;28;20052;-73
2022/03/06 06:21:44;;;;;;;37.10;24.88;;;3.10;99.90;;;;;;5073323;28;20045;-75
2022/03/06 06:24:13;;;;;;;33.72;23.73;;;3.10;99.90;;;;;;5074441;28;20086;-70
2022/03/06 06:26:41;;;;;;;32.53;22.83;;;3.20;99.90;;;;;;5078132;28;20032;-76
2022/03/06 06:29:09;;;;;;;31.00;21.85;;;3.30;99.90;;;;;;5093276;28;20054;-73
2022/03/06 06:31:36;;;;;;;29.52;20.45;;;3.30;99.90;;;;;;5092981;28;20048;-75
2022/03/06 06:34:04;;;;;;;29.80;19.75;;;3.20;99.90;;;;;;5093617;28;20066;-73
2022/03/06 06:36:31;;;;;;;26.52;18.85;;;3.30;99.90;;;;;;5093482;28;20087;-75
2022/03/06 06:38:58;;;;;;;19.80;15.38;;;3.40;99.90;;;;;;5094185;28;20040;-72
2022/03/06 06:41:25;;;;;;;23.90;16.38;;;3.30;99.90;;;;;;5093189;28;20036;-73
2022/03/06 06:43:53;;;;;;;21.95;16.95;;;3.30;99.90;;;;;;5094112;28;20094;-71
2022/03/06 06:46:20;;;;;;;20.50;16.23;;;3.40;99.90;;;;;;5093362;28;20119;-71
2022/03/06 06:48:47;;;;;;;27.45;18.20;;;3.40;99.90;;;;;;5092977;28;20072;-72
2022/03/06 06:51:15;;;;;;;22.08;17.33;;;3.50;99.90;;;;;;5092802;28;20066;-75
2022/03/06 06:53:42;;;;;;;22.40;16.85;;;3.50;99.90;;;;;;5092789;28;20495;-74
2022/03/06 06:56:09;;;;;;;23.95;17.00;;;3.60;99.90;;;;;;5076306;28;20051;-73
2022/03/06 06:58:37;;;;;;;68.97;41.47;;;3.70;99.90;;;;;;5092565;28;20051;-69
2022/03/06 07:01:04;;;;;;;122.57;61.90;;;3.60;99.90;;;;;;5092686;28;20127;-71
2022/03/06 07:03:32;;;;;;;29.42;22.50;;;3.40;99.90;;;;;;5075569;28;20056;-73
2022/03/06 07:05:59;;;;;;;132.40;74.18;;;3.50;99.90;;;;;;5079910;28;20036;-73
2022/03/06 07:08:27;;;;;;;68.10;44.92;;;3.70;99.90;;;;;;5073513;28;20137;-73
2022/03/06 07:10:54;;;;;;;54.92;37.63;;;3.70;99.90;;;;;;5060717;28;20488;-71
2022/03/06 07:13:21;;;;;;;23.02;17.42;;;3.70;99.90;;;;;;5052040;28;20044;-70
2022/03/06 07:15:50;;;;;;;14.52;11.60;;;3.60;99.90;;;;;;5035584;28;20041;-69
2022/03/06 07:18:18;;;;;;;13.93;11.05;;;3.50;99.90;;;;;;5046604;28;20064;-70
2022/03/06 07:20:45;;;;;;;17.65;12.55;;;3.30;99.90;;;;;;5065608;28;20041;-73
2022/03/06 07:23:12;;;;;;;17.85;13.07;;;3.40;99.90;;;;;;5052979;28;20215;-70
2022/03/06 07:25:40;;;;;;;18.00;14.40;;;3.50;99.90;;;;;;5055583;28;20130;-71
2022/03/06 07:28:07;;;;;;;21.85;16.00;;;3.60;99.90;;;;;;5071094;28;20059;-72
2022/03/06 07:30:35;;;;;;;23.13;16.30;;;3.70;99.90;;;;;;5052730;28;20055;-73
2022/03/06 07:33:03;;;;;;;24.08;17.40;;;3.50;99.90;;;;;;5069862;28;20051;-73
2022/03/06 07:35:30;;;;;;;22.85;16.38;;;3.60;99.90;;;;;;5071340;28;20036;-71
2022/03/06 07:37:58;;;;;;;19.45;14.35;;;3.60;99.90;;;;;;5071733;28;20110;-74
2022/03/06 07:40:26;;;;;;;19.92;14.60;;;3.30;99.90;;;;;;5072371;28;20068;-74
2022/03/06 07:42:56;;;;;;;18.00;14.20;;;3.50;99.90;;;;;;5070485;28;20645;-69
2022/03/06 07:45:24;;;;;;;19.15;14.73;;;3.50;99.90;;;;;;5069974;28;20049;-74
2022/03/06 07:47:52;;;;;;;15.05;12.90;;;3.70;99.90;;;;;;5052336;28;20426;-70
2022/03/06 07:50:20;;;;;;;12.85;10.95;;;3.70;99.90;;;;;;5017958;28;20037;-73
2022/03/06 07:52:47;;;;;;;12.35;10.05;;;3.70;99.90;;;;;;5052559;28;20130;-71
2022/03/06 07:55:15;;;;;;;11.70;10.18;;;3.80;99.90;;;;;;5051267;28;20052;-74
2022/03/06 07:57:42;;;;;;;11.20;10.00;;;3.80;99.90;;;;;;5032715;28;20389;-72
2022/03/06 08:00:11;;;;;;;12.75;10.60;;;3.70;99.90;;;;;;5052643;28;20139;-70
2022/03/06 08:02:39;;;;;;;12.25;9.57;;;3.60;99.90;;;;;;5071264;28;20047;-70
2022/03/06 08:05:08;;;;;;;14.65;11.57;;;3.40;99.90;;;;;;5034045;28;20076;-71
2022/03/06 08:07:36;;;;;;;16.42;12.95;;;3.50;99.90;;;;;;5049023;28;20056;-73
2022/03/06 08:10:06;;;;;;;17.85;14.73;;;3.60;99.90;;;;;;5051807;28;20515;-74
2022/03/06 08:12:33;;;;;;;20.85;16.15;;;3.70;99.90;;;;;;5034086;28;20041;-74
2022/03/06 08:15:01;;;;;;;22.92;17.55;;;3.80;99.90;;;;;;5052249;28;20056;-75
2022/03/06 08:17:29;;;;;;;24.20;19.00;;;4.10;99.90;;;;;;5034474;28;20041;-76
2022/03/06 08:19:56;;;;;;;29.80;21.83;;;4.00;99.90;;;;;;5066378;28;20668;-71
2022/03/06 08:22:25;;;;;;;34.03;23.55;;;4.00;99.90;;;;;;5070866;28;20048;-73
2022/03/06 08:24:54;;;;;;;40.17;27.83;;;4.00;99.90;;;;;;5054121;28;20051;-71
2022/03/06 08:27:22;;;;;;;42.50;28.70;;;3.90;99.90;;;;;;5087113;28;20381;-72
2022/03/06 08:29:49;;;;;;;44.88;30.90;;;4.00;99.90;;;;;;5089340;28;20078;-73
2022/03/06 08:32:17;;;;;;;40.92;29.08;;;3.90;99.90;;;;;;5089927;28;20092;-73
2022/03/06 08:34:45;;;;;;;40.13;29.77;;;3.90;99.90;;;;;;5056652;28;20051;-70
2022/03/06 08:37:12;;;;;;;42.40;29.25;;;3.90;99.90;;;;;;5050434;28;20162;-72
2022/03/06 08:39:39;;;;;;;102.90;61.83;;;4.00;99.90;;;;;;5049187;28;20116;-73
2022/03/06 08:42:09;;;;;;;104.63;65.88;;;4.10;99.90;;;;;;5049094;28;20098;-72
2022/03/06 08:44:37;;;;;;;40.45;30.33;;;4.40;99.90;;;;;;5057334;28;20068;-70
2022/03/06 08:47:05;;;;;;;39.38;28.95;;;4.20;99.90;;;;;;5070113;28;20036;-72
2022/03/06 08:49:34;;;;;;;36.58;26.15;;;4.10;99.90;;;;;;5053533;28;20475;-70
2022/03/06 08:52:01;;;;;;;31.83;24.42;;;3.70;99.90;;;;;;5061419;28;20040;-69
2022/03/06 08:54:28;;;;;;;33.22;25.40;;;4.00;99.90;;;;;;5068154;28;20056;-69
2022/03/06 08:56:56;;;;;;;29.05;22.85;;;3.70;99.90;;;;;;5069170;28;20052;-72
2022/03/06 08:59:23;;;;;;;34.88;24.38;;;3.10;99.90;;;;;;5070804;28;20411;-72
2022/03/06 09:01:55;;;;;;;32.30;23.05;;;3.40;99.90;;;;;;5053819;28;20047;-70
2022/03/06 09:04:24;;;;;;;33.47;23.35;;;3.60;99.90;;;;;;5056162;28;20060;-70
2022/03/06 09:06:52;;;;;;;32.67;25.83;;;3.80;99.90;;;;;;5048105;28;20037;-70
2022/03/06 09:09:20;;;;;;;36.70;26.60;;;3.40;99.90;;;;;;5050131;28;20405;-71
2022/03/06 09:11:49;;;;;;;36.70;24.50;;;3.60;99.90;;;;;;5050957;28;20045;-74
2022/03/06 09:14:16;;;;;;;33.75;22.98;;;3.70;99.90;;;;;;5049846;28;20051;-73
2022/03/06 09:16:43;;;;;;;33.28;24.63;;;3.80;99.90;;;;;;5050021;28;20140;-74
2022/03/06 09:19:13;;;;;;;32.45;24.38;;;3.60;99.90;;;;;;5017915;28;20445;-76
2022/03/06 09:21:43;;;;;;;35.55;22.05;;;3.80;99.90;;;;;;5030201;28;20051;-74
2022/03/06 09:24:11;;;;;;;29.38;22.27;;;3.90;99.90;;;;;;5029715;28;20045;-75
2022/03/06 09:26:38;;;;;;;30.25;21.40;;;3.70;99.90;;;;;;5056100;28;20120;-78
2022/03/06 09:29:06;;;;;;;24.98;18.60;;;3.80;99.90;;;;;;5069169;28;20052;-73
2022/03/06 09:31:33;;;;;;;36.85;23.40;;;3.60;99.90;;;;;;5068894;28;20036;-74
2022/03/06 09:34:00;;;;;;;69.35;41.10;;;3.90;99.90;;;;;;5049780;28;20424;-72
2022/03/06 09:36:46;;;;;;;28.80;21.77;;;3.90;99.90;;;;;;5049839;28;20064;-72
2022/03/06 09:39:14;;;;;;;25.80;18.63;;;3.80;99.90;;;;;;5049903;28;20120;-76
2022/03/06 09:41:42;;;;;;;24.55;17.73;;;3.70;99.90;;;;;;5032072;28;20041;-71
2022/03/06 09:44:13;;;;;;;23.77;15.93;;;4.00;99.90;;;;;;5048368;28;20049;-74
2022/03/06 09:46:40;;;;;;;19.33;14.52;;;3.80;99.90;;;;;;5049725;28;20029;-78
2022/03/06 09:49:09;;;;;;;19.73;15.05;;;4.00;99.90;;;;;;5048688;28;20075;-70
2022/03/06 09:51:41;;;;;;;22.10;15.73;;;3.80;99.90;;;;;;5050127;28;20063;-75
2022/03/06 09:54:11;;;;;;;19.85;14.95;;;3.90;99.90;;;;;;5047864;28;20068;-76
2022/03/06 09:56:39;;;;;;;72.78;43.60;;;3.70;99.90;;;;;;5049989;28;20039;-72
2022/03/06 09:59:07;;;;;;;31.50;20.98;;;3.80;99.90;;;;;;5049126;28;20049;-77
2022/03/06 10:01:34;;;;;;;20.10;15.50;;;3.70;99.90;;;;;;5050546;28;20087;-74
2022/03/06 10:04:25;;;;;;;17.17;14.40;;;3.70;99.90;;;;;;5050223;28;20037;-85
2022/03/06 10:06:59;;;;;;;20.48;14.85;;;3.90;99.90;;;;;;5047574;28;20136;-73
2022/03/06 10:09:28;;;;;;;19.55;15.73;;;3.80;99.90;;;;;;5045298;28;20595;-74
2022/03/06 10:11:56;;;;;;;20.05;14.73;;;4.10;99.90;;;;;;5032436;28;20061;-71
2022/03/06 10:14:37;;;;;;;16.35;13.20;;;4.30;99.90;;;;;;5050022;28;20037;-71
2022/03/06 10:17:15;;;;;;;17.13;13.25;;;4.30;99.90;;;;;;5031595;28;20049;-78
2022/03/06 10:20:09;;;;;;;20.95;14.60;;;4.40;99.90;;;;;;5046952;28;20056;-74
2022/03/06 10:22:39;;;;;;;32.25;21.80;;;4.50;99.90;;;;;;5053276;28;20040;-77
2022/03/06 10:25:17;;;;;;;48.60;29.60;;;4.50;99.90;;;;;;5052325;28;20132;-76
2022/03/06 10:27:54;;;;;;;50.05;32.60;;;4.40;99.90;;;;;;5053129;28;20388;-71
2022/03/06 10:30:32;;;;;;;52.80;35.05;;;4.40;99.90;;;;;;5070891;28;20510;-68
2022/03/06 10:33:05;;;;;;;48.78;33.15;;;4.50;99.90;;;;;;5053167;28;20068;-72
2022/03/06 10:35:40;;;;;;;45.13;30.23;;;4.50;99.90;;;;;;5052271;28;20057;-70
2022/03/06 10:38:26;;;;;;;49.88;31.10;;;5.00;99.90;;;;;;5042873;28;20038;-66
2022/03/06 10:40:58;;;;;;;46.25;30.73;;;5.10;99.90;;;;;;5036658;28;20513;-66
2022/03/06 10:43:32;;;;;;;21.80;17.08;;;4.70;99.90;;;;;;5044432;28;20489;-69
2022/03/06 10:46:17;;;;;;;24.60;18.42;;;4.60;99.90;;;;;;5040894;28;20037;-68
2022/03/06 10:48:59;;;;;;;20.75;16.05;;;4.70;99.90;;;;;;5041628;28;20337;-73
2022/03/06 10:51:27;;;;;;;24.77;17.05;;;4.60;99.90;;;;;;5033045;28;20136;-68
2022/03/06 10:53:58;;;;;;;28.23;19.55;;;4.80;99.90;;;;;;5040854;28;20041;-68
2022/03/06 10:56:27;;;;;;;29.00;20.88;;;4.90;99.90;;;;;;5022836;28;20518;-68
2022/03/06 10:58:56;;;;;;;36.53;25.20;;;5.00;99.90;;;;;;5023275;28;20144;-68
2022/03/06 11:01:27;;;;;;;40.10;27.50;;;5.20;99.90;;;;;;5037946;28;20073;-68
2022/03/06 11:04:00;;;;;;;42.53;28.60;;;5.40;99.90;;;;;;5022330;28;20567;-68
2022/03/06 11:06:33;;;;;;;32.45;23.60;;;5.50;99.90;;;;;;5038936;28;20301;-69
2022/03/06 11:09:00;;;;;;;28.30;21.35;;;5.20;99.90;;;;;;5022863;28;20135;-72
2022/03/06 11:11:28;;;;;;;21.42;15.48;;;4.90;99.90;;;;;;5041691;28;20060;-69
2022/03/06 11:13:56;;;;;;;12.43;10.20;;;4.40;99.90;;;;;;5040033;28;20051;-65
2022/03/06 11:16:24;;;;;;;11.90;8.93;;;4.40;99.90;;;;;;5051884;28;20128;-68
2022/03/06 11:18:57;;;;;;;12.25;9.70;;;4.30;99.90;;;;;;5051766;28;20068;-67
2022/03/06 11:21:27;;;;;;;9.38;8.13;;;4.10;99.90;;;;;;5035153;28;20135;-67
2022/03/06 11:23:58;;;;;;;13.88;9.15;;;4.10;99.90;;;;;;5040185;28;20037;-67
2022/03/06 11:27:02;;;;;;;16.90;11.63;;;4.40;99.90;;;;;;5045967;28;20042;-67
2022/03/06 11:30:02;;;;;;;26.98;19.33;;;4.80;99.90;;;;;;5038506;28;20500;-69
2022/03/06 11:32:35;;;;;;;33.78;22.88;;;4.50;99.90;;;;;;5032869;28;20041;-67
2022/03/06 11:35:05;;;;;;;27.25;19.77;;;4.30;99.90;;;;;;5039858;28;20053;-68
2022/03/06 11:37:54;;;;;;;30.10;20.98;;;4.30;99.90;;;;;;5040600;28;20048;-70
2022/03/06 11:40:40;;;;;;;32.17;22.02;;;4.60;99.90;;;;;;5038733;28;20561;-67
2022/03/06 11:43:08;;;;;;;21.80;15.95;;;4.90;99.90;;;;;;5042923;28;20044;-68
2022/03/06 11:45:50;;;;;;;23.55;16.58;;;5.10;99.90;;;;;;5023521;28;20060;-69
2022/03/06 11:48:26;;;;;;;20.17;14.68;;;5.10;99.90;;;;;;5039910;28;20055;-76
2022/03/06 11:51:12;;;;;;;18.45;13.82;;;4.90;99.90;;;;;;5022995;28;20041;-66
2022/03/06 11:53:55;;;;;;;14.63;11.70;;;5.10;99.90;;;;;;5021612;28;20291;-69
2022/03/06 11:56:32;;;;;;;12.80;10.57;;;5.30;99.90;;;;;;5042213;28;20037;-69
2022/03/06 11:59:17;;;;;;;12.30;9.73;;;5.30;99.90;;;;;;5041500;28;20061;-69
2022/03/06 12:01:51;;;;;;;11.85;9.45;;;5.30;99.90;;;;;;5041802;28;20037;-70
2022/03/06 12:04:21;;;;;;;10.98;8.90;;;5.30;99.90;;;;;;5036250;28;20512;-68
2022/03/06 12:06:53;;;;;;;12.43;9.50;;;5.20;99.90;;;;;;5040877;28;20033;-67
2022/03/06 12:09:22;;;;;;;9.55;8.43;;;5.40;99.90;;;;;;5022859;28;20053;-67
2022/03/06 12:11:53;;;;;;;10.45;8.25;;;5.50;99.90;;;;;;5038624;28;20807;-67
2022/03/06 12:14:27;;;;;;;11.02;8.82;;;5.40;99.90;;;;;;5042093;28;20478;-67
2022/03/06 12:17:10;;;;;;;12.73;10.38;;;5.40;99.90;;;;;;5036822;28;20057;-67
2022/03/06 12:19:43;;;;;;;14.23;10.35;;;5.30;99.90;;;;;;5040260;28;20055;-72
2022/03/06 12:22:11;;;;;;;13.32;10.80;;;5.40;99.90;;;;;;5039564;28;20042;-72
2022/03/06 12:24:41;;;;;;;13.05;10.23;;;5.40;99.90;;;;;;5039739;28;20472;-75
2022/03/06 12:27:16;;;;;;;14.75;10.27;;;5.60;99.90;;;;;;5043098;28;20037;-69
2022/03/06 12:29:47;;;;;;;13.32;11.05;;;5.80;99.90;;;;;;5037553;28;20069;-68
2022/03/06 12:32:29;;;;;;;22.90;16.80;;;5.80;99.90;;;;;;5040116;28;20055;-69
2022/03/06 12:35:10;;;;;;;57.40;36.20;;;5.80;99.90;;;;;;5038500;28;20449;-68
2022/03/06 12:37:54;;;;;;;67.68;44.40;;;5.70;99.90;;;;;;5021349;28;20050;-68
2022/03/06 12:40:24;;;;;;;69.25;45.85;;;5.20;99.90;;;;;;5030089;28;20032;-69
2022/03/06 12:43:05;;;;;;;64.72;44.08;;;5.30;99.90;;;;;;5023144;28;20385;-68
2022/03/06 12:45:34;;;;;;;64.28;43.67;;;5.40;99.90;;;;;;5037366;28;20468;-67
2022/03/06 12:48:04;;;;;;;69.95;44.55;;;5.40;99.90;;;;;;5040493;28;20049;-68
2022/03/06 12:50:31;;;;;;;65.25;43.10;;;5.40;99.90;;;;;;5022104;28;20049;-67